createdAt,value
2017-02-27T00:00:17.002Z,0
2017-02-27T00:00:57.781Z,0
2017-02-27T00:01:38.560Z,0
2017-02-27T00:02:19.322Z,0
2017-02-27T00:02:59.901Z,0
2017-02-27T00:03:40.708Z,0
2017-02-27T00:04:21.538Z,0
2017-02-27T00:05:02.239Z,0
2017-02-27T00:05:42.830Z,0
2017-02-27T00:06:23.624Z,0
2017-02-27T00:07:04.423Z,0
2017-02-27T00:07:45.174Z,0
2017-02-27T00:08:25.907Z,0
2017-02-27T00:09:06.668Z,0
2017-02-27T00:09:47.451Z,0
2017-02-27T00:10:28.180Z,0
2017-02-27T00:11:08.928Z,0
2017-02-27T00:11:49.587Z,0
2017-02-27T00:12:30.356Z,0
2017-02-27T00:13:11.038Z,0
2017-02-27T00:13:51.831Z,0
2017-02-27T00:14:32.684Z,0
2017-02-27T00:15:13.356Z,0
2017-02-27T00:15:53.923Z,0
2017-02-27T00:16:34.638Z,0
2017-02-27T00:17:15.417Z,0
2017-02-27T00:17:56.171Z,0
2017-02-27T00:18:36.774Z,0
2017-02-27T00:19:17.594Z,0
2017-02-27T00:19:58.336Z,0
2017-02-27T00:20:38.910Z,0
2017-02-27T00:21:19.642Z,0
2017-02-27T00:22:00.393Z,0
2017-02-27T00:22:40.982Z,0
2017-02-27T00:23:21.730Z,0
2017-02-27T00:24:02.469Z,0
2017-02-27T00:24:43.212Z,0
2017-02-27T00:25:23.968Z,0
2017-02-27T00:26:04.724Z,0
2017-02-27T00:26:45.478Z,0
2017-02-27T00:27:26.233Z,0
2017-02-27T00:28:07.012Z,0
2017-02-27T00:28:47.746Z,0
2017-02-27T00:29:28.500Z,0
2017-02-27T00:30:09.275Z,0
2017-02-27T00:30:50.010Z,0
2017-02-27T00:31:30.765Z,0
2017-02-27T00:32:11.522Z,0
2017-02-27T00:32:52.296Z,0
2017-02-27T00:33:33.029Z,0
2017-02-27T00:34:13.794Z,0
2017-02-27T00:34:54.551Z,0
2017-02-27T00:35:35.296Z,0
2017-02-27T00:36:16.150Z,0
2017-02-27T00:36:56.910Z,0
2017-02-27T00:37:37.770Z,0
2017-02-27T00:38:18.521Z,0
2017-02-27T00:38:59.329Z,0
2017-02-27T00:39:40.044Z,0
2017-02-27T00:40:20.786Z,0
2017-02-27T00:41:01.550Z,0
2017-02-27T00:41:42.361Z,0
2017-02-27T00:42:23.054Z,0
2017-02-27T00:43:03.618Z,0
2017-02-27T00:43:44.303Z,0
2017-02-27T00:44:25.016Z,0
2017-02-27T00:45:05.891Z,0
2017-02-27T00:45:46.452Z,0
2017-02-27T00:46:27.230Z,0
2017-02-27T00:47:07.941Z,0
2017-02-27T00:47:48.693Z,0
2017-02-27T00:48:29.438Z,0
2017-02-27T00:49:10.112Z,0
2017-02-27T00:49:50.856Z,0
2017-02-27T00:50:31.605Z,0
2017-02-27T00:51:12.362Z,0
2017-02-27T00:51:53.115Z,0
2017-02-27T00:52:33.974Z,0
2017-02-27T00:53:14.734Z,0
2017-02-27T00:53:55.515Z,0
2017-02-27T00:54:36.259Z,0
2017-02-27T00:55:17.002Z,0
2017-02-27T00:55:57.755Z,0
2017-02-27T00:56:38.511Z,0
2017-02-27T00:57:19.260Z,0
2017-02-27T00:58:00.023Z,0
2017-02-27T00:58:40.776Z,0
2017-02-27T00:59:21.525Z,0
2017-02-27T01:00:02.190Z,0
2017-02-27T01:00:42.792Z,0
2017-02-27T01:01:23.494Z,0
2017-02-27T01:02:04.140Z,0
2017-02-27T01:02:44.805Z,0
2017-02-27T01:03:25.456Z,0
2017-02-27T01:04:06.097Z,0
2017-02-27T01:04:46.759Z,0
2017-02-27T01:05:27.506Z,0
2017-02-27T01:06:08.173Z,0
2017-02-27T01:06:48.813Z,0
2017-02-27T01:07:29.480Z,0
2017-02-27T01:08:10.132Z,0
2017-02-27T01:08:50.701Z,0
2017-02-27T01:09:31.432Z,0
2017-02-27T01:10:12.097Z,0
2017-02-27T01:10:52.713Z,0
2017-02-27T01:11:33.274Z,0
2017-02-27T01:12:13.944Z,0
2017-02-27T01:12:54.663Z,0
2017-02-27T01:13:35.342Z,0
2017-02-27T01:14:16.010Z,0
2017-02-27T01:14:56.646Z,0
2017-02-27T01:15:37.316Z,0
2017-02-27T01:16:17.947Z,0
2017-02-27T01:16:58.619Z,0
2017-02-27T01:17:39.259Z,0
2017-02-27T01:18:19.935Z,0
2017-02-27T01:19:00.540Z,0
2017-02-27T01:19:41.246Z,0
2017-02-27T01:20:21.872Z,0
2017-02-27T01:21:02.431Z,0
2017-02-27T01:21:43.098Z,0
2017-02-27T01:22:23.737Z,0
2017-02-27T01:23:04.315Z,0
2017-02-27T01:23:44.943Z,0
2017-02-27T01:24:25.590Z,0
2017-02-27T01:25:06.164Z,0
2017-02-27T01:25:46.851Z,0
2017-02-27T01:26:27.543Z,0
2017-02-27T01:27:08.202Z,0
2017-02-27T01:27:48.772Z,0
2017-02-27T01:28:29.507Z,0
2017-02-27T01:29:10.179Z,0
2017-02-27T01:29:50.815Z,0
2017-02-27T01:30:31.373Z,0
2017-02-27T01:31:12.067Z,0
2017-02-27T01:31:52.664Z,0
2017-02-27T01:32:33.316Z,0
2017-02-27T01:33:13.881Z,0
2017-02-27T01:33:54.506Z,0
2017-02-27T01:34:35.176Z,0
2017-02-27T01:37:58.283Z,0
2017-02-27T01:38:38.896Z,0
2017-02-27T01:40:40.858Z,0
2017-02-27T01:41:21.512Z,0
2017-02-27T01:42:02.167Z,0
2017-02-27T01:44:04.118Z,0
2017-02-27T01:46:46.649Z,0
2017-02-27T01:48:48.587Z,0
2017-02-27T01:51:31.294Z,0
2017-02-27T01:52:11.951Z,0
2017-02-27T01:52:52.534Z,0
2017-02-27T01:53:33.216Z,0
2017-02-27T01:54:13.909Z,0
2017-02-27T01:54:54.672Z,0
2017-02-27T01:55:35.232Z,0
2017-02-27T01:56:15.936Z,0
2017-02-27T01:56:56.635Z,0
2017-02-27T01:57:37.284Z,0
2017-02-27T01:58:17.849Z,0
2017-02-27T01:58:58.468Z,0
2017-02-27T01:59:39.133Z,0
2017-02-27T02:00:19.693Z,0
2017-02-27T02:01:00.335Z,0
2017-02-27T02:01:40.987Z,0
2017-02-27T02:02:21.564Z,0
2017-02-27T02:03:02.214Z,0
2017-02-27T02:03:42.844Z,0
2017-02-27T02:04:23.413Z,0
2017-02-27T02:05:04.118Z,0
2017-02-27T02:05:44.792Z,0
2017-02-27T02:06:25.464Z,0
2017-02-27T02:07:06.028Z,0
2017-02-27T02:07:46.700Z,0
2017-02-27T02:08:27.314Z,0
2017-02-27T02:09:07.871Z,0
2017-02-27T02:09:48.595Z,0
2017-02-27T02:10:29.361Z,0
2017-02-27T02:11:09.922Z,0
2017-02-27T02:11:50.654Z,0
2017-02-27T02:12:31.422Z,0
2017-02-27T02:13:12.000Z,0
2017-02-27T02:13:52.719Z,0
2017-02-27T02:14:33.468Z,0
2017-02-27T02:15:14.234Z,0
2017-02-27T02:15:54.974Z,0
2017-02-27T02:16:35.739Z,0
2017-02-27T02:17:16.489Z,0
2017-02-27T02:17:57.282Z,0
2017-02-27T02:18:38.014Z,0
2017-02-27T02:19:19.010Z,0
2017-02-27T02:19:59.806Z,0
2017-02-27T02:20:40.587Z,0
2017-02-27T02:21:21.337Z,0
2017-02-27T02:22:01.900Z,0
2017-02-27T02:22:42.579Z,0
2017-02-27T02:23:23.294Z,0
2017-02-27T02:24:03.880Z,0
2017-02-27T02:24:44.606Z,0
2017-02-27T02:25:25.351Z,0
2017-02-27T02:26:05.917Z,0
2017-02-27T02:26:46.669Z,0
2017-02-27T02:27:27.237Z,0
2017-02-27T02:28:07.964Z,0
2017-02-27T02:28:48.735Z,0
2017-02-27T02:29:29.475Z,0
2017-02-27T02:30:10.229Z,0
2017-02-27T02:30:50.986Z,0
2017-02-27T02:31:31.633Z,0
2017-02-27T02:32:12.388Z,0
2017-02-27T02:32:52.963Z,0
2017-02-27T02:33:33.680Z,0
2017-02-27T02:34:14.350Z,0
2017-02-27T02:34:55.108Z,0
2017-02-27T02:35:35.700Z,0
2017-02-27T02:36:16.476Z,0
2017-02-27T02:36:57.182Z,0
2017-02-27T02:37:37.948Z,0
2017-02-27T02:38:18.678Z,0
2017-02-27T02:38:59.439Z,0
2017-02-27T02:39:40.189Z,0
2017-02-27T02:40:20.949Z,0
2017-02-27T02:41:01.706Z,0
2017-02-27T02:41:42.476Z,0
2017-02-27T02:42:23.215Z,0
2017-02-27T02:43:03.795Z,0
2017-02-27T02:43:44.525Z,0
2017-02-27T02:44:25.272Z,0
2017-02-27T02:45:05.823Z,0
2017-02-27T02:45:46.579Z,0
2017-02-27T02:46:27.333Z,0
2017-02-27T02:47:07.931Z,0
2017-02-27T02:47:49.049Z,0
2017-02-27T02:48:29.801Z,0
2017-02-27T02:49:10.373Z,0
2017-02-27T02:49:51.088Z,0
2017-02-27T02:50:31.758Z,0
2017-02-27T02:51:12.629Z,0
2017-02-27T02:51:53.204Z,0
2017-02-27T02:52:34.926Z,0
2017-02-27T02:53:15.605Z,0
2017-02-27T02:53:56.368Z,0
2017-02-27T02:54:37.112Z,0
2017-02-27T02:55:17.881Z,0
2017-02-27T02:55:58.630Z,0
2017-02-27T02:56:39.385Z,0
2017-02-27T02:57:21.164Z,0
2017-02-27T02:58:01.922Z,0
2017-02-27T02:58:42.696Z,0
2017-02-27T02:59:23.250Z,0
2017-02-27T03:00:04.059Z,0
2017-02-27T03:00:44.836Z,0
2017-02-27T03:01:25.418Z,0
2017-02-27T03:02:06.141Z,0
2017-02-27T03:02:46.725Z,0
2017-02-27T03:03:27.527Z,0
2017-02-27T03:04:08.297Z,0
2017-02-27T03:04:49.050Z,0
2017-02-27T03:05:29.807Z,0
2017-02-27T03:06:10.535Z,0
2017-02-27T03:06:51.300Z,0
2017-02-27T03:07:32.055Z,0
2017-02-27T03:08:12.814Z,0
2017-02-27T03:08:53.566Z,0
2017-02-27T03:09:34.336Z,0
2017-02-27T03:10:15.078Z,0
2017-02-27T03:10:56.219Z,0
2017-02-27T03:11:36.999Z,0
2017-02-27T03:12:17.722Z,0
2017-02-27T03:12:58.903Z,0
2017-02-27T03:13:39.798Z,0
2017-02-27T03:14:20.560Z,0
2017-02-27T03:15:01.328Z,0
2017-02-27T03:15:42.070Z,0
2017-02-27T03:16:22.823Z,0
2017-02-27T03:17:03.621Z,0
2017-02-27T03:17:44.356Z,0
2017-02-27T03:18:25.086Z,0
2017-02-27T03:19:05.844Z,0
2017-02-27T03:19:46.604Z,0
2017-02-27T03:20:27.349Z,0
2017-02-27T03:21:08.118Z,0
2017-02-27T03:21:48.871Z,0
2017-02-27T03:22:29.618Z,0
2017-02-27T03:23:10.374Z,0
2017-02-27T03:23:51.154Z,0
2017-02-27T03:24:31.879Z,0
2017-02-27T03:25:12.655Z,0
2017-02-27T03:25:53.287Z,0
2017-02-27T03:26:33.942Z,0
2017-02-27T03:27:14.598Z,0
2017-02-27T03:27:55.248Z,0
2017-02-27T03:28:35.916Z,0
2017-02-27T03:29:16.558Z,0
2017-02-27T03:29:57.205Z,0
2017-02-27T03:30:37.863Z,0
2017-02-27T03:31:18.518Z,0
2017-02-27T03:31:59.169Z,0
2017-02-27T03:32:39.820Z,0
2017-02-27T03:33:20.416Z,0
2017-02-27T03:34:01.519Z,0
2017-02-27T03:34:42.185Z,0
2017-02-27T03:35:22.845Z,0
2017-02-27T03:36:03.433Z,0
2017-02-27T03:36:44.126Z,0
2017-02-27T03:37:24.803Z,0
2017-02-27T03:38:05.454Z,0
2017-02-27T03:38:46.139Z,0
2017-02-27T03:39:27.178Z,0
2017-02-27T03:40:07.821Z,0
2017-02-27T03:40:48.476Z,0
2017-02-27T03:41:29.126Z,0
2017-02-27T03:42:09.794Z,0
2017-02-27T03:42:50.562Z,0
2017-02-27T03:43:31.297Z,0
2017-02-27T03:44:11.974Z,0
2017-02-27T03:44:52.606Z,0
2017-02-27T03:45:33.266Z,0
2017-02-27T03:46:13.943Z,0
2017-02-27T03:46:54.562Z,0
2017-02-27T03:47:35.233Z,0
2017-02-27T03:48:15.891Z,0
2017-02-27T03:48:56.528Z,0
2017-02-27T03:49:37.192Z,0
2017-02-27T03:50:17.843Z,0
2017-02-27T03:50:58.484Z,0
2017-02-27T03:51:39.144Z,0
2017-02-27T03:52:19.783Z,0
2017-02-27T03:53:00.435Z,0
2017-02-27T03:53:41.098Z,0
2017-02-27T03:54:21.743Z,0
2017-02-27T03:55:02.409Z,0
2017-02-27T03:55:43.046Z,0
2017-02-27T03:56:23.698Z,0
2017-02-27T03:57:04.353Z,0
2017-02-27T03:57:45.025Z,0
2017-02-27T03:58:25.677Z,0
2017-02-27T03:59:06.315Z,0
2017-02-27T03:59:46.981Z,0
2017-02-27T04:00:27.631Z,0
2017-02-27T04:01:08.376Z,0
2017-02-27T04:01:49.050Z,0
2017-02-27T04:02:29.692Z,0
2017-02-27T04:03:10.345Z,0
2017-02-27T04:03:51.106Z,0
2017-02-27T04:04:32.146Z,0
2017-02-27T04:05:12.822Z,0
2017-02-27T04:05:53.468Z,0
2017-02-27T04:06:34.108Z,0
2017-02-27T04:07:14.763Z,0
2017-02-27T04:07:55.416Z,0
2017-02-27T04:08:35.993Z,0
2017-02-27T04:09:16.689Z,0
2017-02-27T04:09:57.393Z,0
2017-02-27T04:10:38.033Z,0
2017-02-27T04:11:18.593Z,0
2017-02-27T04:11:59.210Z,0
2017-02-27T04:12:39.872Z,0
2017-02-27T04:13:20.537Z,0
2017-02-27T04:14:01.182Z,0
2017-02-27T04:14:41.837Z,0
2017-02-27T04:15:22.496Z,0
2017-02-27T04:16:03.165Z,0
2017-02-27T04:16:43.818Z,0
2017-02-27T04:17:24.870Z,0
2017-02-27T04:18:05.519Z,0
2017-02-27T04:18:46.081Z,0
2017-02-27T04:19:26.748Z,0
2017-02-27T04:20:07.371Z,0
2017-02-27T04:20:47.936Z,0
2017-02-27T04:21:28.568Z,0
2017-02-27T04:22:09.235Z,0
2017-02-27T04:22:49.818Z,0
2017-02-27T04:23:30.446Z,0
2017-02-27T04:24:11.090Z,0
2017-02-27T04:24:51.667Z,0
2017-02-27T04:25:32.357Z,0
2017-02-27T04:26:13.056Z,0
2017-02-27T04:26:53.695Z,0
2017-02-27T04:27:34.275Z,0
2017-02-27T04:28:14.984Z,0
2017-02-27T04:28:55.675Z,0
2017-02-27T04:29:36.312Z,0
2017-02-27T04:30:16.875Z,0
2017-02-27T04:30:57.566Z,0
2017-02-27T04:31:38.208Z,0
2017-02-27T04:32:18.830Z,0
2017-02-27T04:32:59.379Z,0
2017-02-27T04:33:40.102Z,0
2017-02-27T04:34:20.787Z,0
2017-02-27T04:35:01.442Z,0
2017-02-27T04:35:42.017Z,0
2017-02-27T04:36:22.706Z,0
2017-02-27T04:37:03.419Z,0
2017-02-27T04:37:44.042Z,0
2017-02-27T04:38:24.636Z,0
2017-02-27T04:39:05.317Z,0
2017-02-27T04:39:46.007Z,0
2017-02-27T04:40:26.661Z,0
2017-02-27T04:41:07.242Z,0
2017-02-27T04:41:47.911Z,0
2017-02-27T04:42:28.627Z,0
2017-02-27T04:43:09.279Z,0
2017-02-27T04:43:49.868Z,0
2017-02-27T04:44:30.523Z,0
2017-02-27T04:45:11.232Z,0
2017-02-27T04:45:51.887Z,0
2017-02-27T04:46:32.454Z,0
2017-02-27T04:47:13.164Z,0
2017-02-27T04:47:53.849Z,0
2017-02-27T04:48:34.512Z,0
2017-02-27T04:49:15.102Z,0
2017-02-27T04:49:55.788Z,0
2017-02-27T04:50:36.455Z,0
2017-02-27T04:51:17.105Z,0
2017-02-27T04:51:57.667Z,0
2017-02-27T04:52:38.380Z,0
2017-02-27T04:53:19.074Z,0
2017-02-27T04:53:59.718Z,0
2017-02-27T04:54:40.274Z,0
2017-02-27T04:55:20.977Z,0
2017-02-27T04:56:01.682Z,0
2017-02-27T04:56:42.331Z,0
2017-02-27T04:57:22.891Z,0
2017-02-27T04:58:03.593Z,0
2017-02-27T04:58:44.285Z,0
2017-02-27T04:59:24.940Z,0
2017-02-27T05:00:05.520Z,0
2017-02-27T05:00:46.197Z,0
2017-02-27T05:01:26.899Z,0
2017-02-27T05:02:07.560Z,0
2017-02-27T05:02:48.151Z,0
2017-02-27T05:03:28.804Z,0
2017-02-27T05:04:09.530Z,0
2017-02-27T05:04:50.177Z,0
2017-02-27T05:05:30.734Z,0
2017-02-27T05:06:11.426Z,0
2017-02-27T05:06:52.136Z,0
2017-02-27T05:07:32.771Z,0
2017-02-27T05:08:13.346Z,0
2017-02-27T05:08:54.144Z,0
2017-02-27T05:09:34.841Z,0
2017-02-27T05:10:15.499Z,0
2017-02-27T05:10:56.058Z,0
2017-02-27T05:11:37.693Z,0
2017-02-27T05:12:18.369Z,0
2017-02-27T05:12:59.020Z,0
2017-02-27T05:13:39.593Z,0
2017-02-27T05:14:20.288Z,0
2017-02-27T05:15:00.979Z,0
2017-02-27T05:15:41.632Z,0
2017-02-27T05:16:22.206Z,0
2017-02-27T05:17:02.904Z,0
2017-02-27T05:17:43.609Z,0
2017-02-27T05:18:24.258Z,0
2017-02-27T05:19:04.808Z,0
2017-02-27T05:19:45.453Z,0
2017-02-27T05:20:26.513Z,0
2017-02-27T05:21:07.114Z,0
2017-02-27T05:21:47.722Z,0
2017-02-27T05:22:28.371Z,0
2017-02-27T05:23:08.930Z,0
2017-02-27T05:23:49.567Z,0
2017-02-27T05:24:30.220Z,0
2017-02-27T05:25:10.810Z,0
2017-02-27T05:25:51.491Z,0
2017-02-27T05:26:32.214Z,0
2017-02-27T05:27:12.844Z,0
2017-02-27T05:27:53.429Z,0
2017-02-27T05:28:34.152Z,0
2017-02-27T05:29:14.799Z,0
2017-02-27T05:29:55.448Z,0
2017-02-27T05:30:36.098Z,0
2017-02-27T05:31:16.749Z,0
2017-02-27T05:31:57.408Z,0
2017-02-27T05:32:38.058Z,0
2017-02-27T05:33:18.710Z,0
2017-02-27T05:33:59.360Z,0
2017-02-27T05:34:40.015Z,0
2017-02-27T05:35:20.672Z,0
2017-02-27T05:36:01.362Z,0
2017-02-27T05:36:42.083Z,0
2017-02-27T05:37:22.740Z,0
2017-02-27T05:38:03.384Z,0
2017-02-27T05:38:43.954Z,0
2017-02-27T05:39:24.589Z,0
2017-02-27T05:40:05.256Z,0
2017-02-27T05:40:45.840Z,0
2017-02-27T05:41:26.548Z,0
2017-02-27T05:42:07.203Z,0
2017-02-27T05:42:47.787Z,0
2017-02-27T05:43:28.405Z,0
2017-02-27T05:44:09.057Z,0
2017-02-27T05:44:49.626Z,0
2017-02-27T05:45:30.483Z,0
2017-02-27T05:46:11.057Z,0
2017-02-27T05:46:51.723Z,0
2017-02-27T05:47:32.441Z,0
2017-02-27T05:48:13.025Z,0
2017-02-27T05:48:53.735Z,0
2017-02-27T05:49:34.391Z,0
2017-02-27T05:50:14.983Z,0
2017-02-27T05:50:55.580Z,0
2017-02-27T05:51:36.243Z,0
2017-02-27T05:52:16.804Z,0
2017-02-27T05:52:57.438Z,0
2017-02-27T05:53:38.007Z,0
2017-02-27T05:54:18.859Z,0
2017-02-27T05:54:59.517Z,0
2017-02-27T05:55:40.160Z,0
2017-02-27T05:56:20.820Z,4
2017-02-27T05:57:01.479Z,4
2017-02-27T05:57:42.113Z,4
2017-02-27T05:58:22.771Z,4
2017-02-27T05:59:03.384Z,0
2017-02-27T05:59:44.069Z,4
2017-02-27T06:00:24.727Z,4
2017-02-27T06:01:05.294Z,4
2017-02-27T06:01:45.933Z,4
2017-02-27T06:02:26.597Z,4
2017-02-27T06:03:07.174Z,8
2017-02-27T06:03:47.929Z,4
2017-02-27T06:04:28.543Z,4
2017-02-27T06:05:09.196Z,8
2017-02-27T06:05:49.874Z,8
2017-02-27T06:06:30.510Z,8
2017-02-27T06:07:11.157Z,8
2017-02-27T06:07:51.828Z,12
2017-02-27T06:08:32.481Z,12
2017-02-27T06:09:13.118Z,12
2017-02-27T06:09:53.688Z,12
2017-02-27T06:10:34.354Z,12
2017-02-27T06:11:14.973Z,16
2017-02-27T06:11:55.556Z,16
2017-02-27T06:12:36.197Z,20
2017-02-27T06:13:16.844Z,20
2017-02-27T06:13:57.422Z,20
2017-02-27T06:14:38.124Z,24
2017-02-27T06:15:18.789Z,28
2017-02-27T06:15:59.486Z,32
2017-02-27T06:16:40.054Z,32
2017-02-27T06:17:21.823Z,36
2017-02-27T06:18:02.406Z,32
2017-02-27T06:18:43.102Z,36
2017-02-27T06:19:23.861Z,36
2017-02-27T06:20:04.491Z,40
2017-02-27T06:20:45.052Z,40
2017-02-27T06:21:25.808Z,40
2017-02-27T06:22:06.543Z,40
2017-02-27T06:22:47.195Z,40
2017-02-27T06:23:27.758Z,44
2017-02-27T06:24:08.425Z,48
2017-02-27T06:24:49.066Z,52
2017-02-27T06:25:29.647Z,56
2017-02-27T06:26:10.356Z,64
2017-02-27T06:26:51.008Z,72
2017-02-27T06:27:31.659Z,84
2017-02-27T06:28:12.334Z,92
2017-02-27T06:28:53.005Z,104
2017-02-27T06:29:33.732Z,112
2017-02-27T06:30:14.379Z,120
2017-02-27T06:30:55.063Z,120
2017-02-27T06:31:35.691Z,128
2017-02-27T06:32:16.473Z,128
2017-02-27T06:32:57.097Z,132
2017-02-27T06:33:37.747Z,136
2017-02-27T06:34:18.523Z,148
2017-02-27T06:34:59.170Z,156
2017-02-27T06:35:39.812Z,168
2017-02-27T06:36:20.586Z,180
2017-02-27T06:37:01.237Z,184
2017-02-27T06:37:41.876Z,188
2017-02-27T06:38:22.744Z,188
2017-02-27T06:39:03.389Z,192
2017-02-27T06:39:44.066Z,192
2017-02-27T06:40:24.694Z,200
2017-02-27T06:41:05.380Z,220
2017-02-27T06:41:45.996Z,224
2017-02-27T06:42:26.647Z,240
2017-02-27T06:43:07.301Z,240
2017-02-27T06:43:47.956Z,224
2017-02-27T06:44:28.607Z,212
2017-02-27T06:45:09.256Z,236
2017-02-27T06:45:49.916Z,260
2017-02-27T06:46:30.785Z,248
2017-02-27T06:47:11.424Z,252
2017-02-27T06:47:52.081Z,260
2017-02-27T06:48:32.731Z,260
2017-02-27T06:49:13.357Z,248
2017-02-27T06:49:54.033Z,248
2017-02-27T06:50:34.601Z,256
2017-02-27T06:51:15.182Z,276
2017-02-27T06:51:55.764Z,336
2017-02-27T06:52:36.393Z,416
2017-02-27T06:53:17.099Z,464
2017-02-27T06:53:57.750Z,464
2017-02-27T06:54:38.408Z,488
2017-02-27T06:55:19.071Z,512
2017-02-27T06:55:59.702Z,548
2017-02-27T06:56:40.296Z,548
2017-02-27T06:57:20.899Z,560
2017-02-27T06:58:01.546Z,580
2017-02-27T06:58:42.183Z,604
2017-02-27T06:59:22.762Z,644
2017-02-27T07:00:03.352Z,636
2017-02-27T07:00:43.907Z,608
2017-02-27T07:01:24.495Z,588
2017-02-27T07:02:05.113Z,584
2017-02-27T07:02:45.714Z,564
2017-02-27T07:03:26.283Z,572
2017-02-27T07:04:06.890Z,556
2017-02-27T07:04:47.462Z,516
2017-02-27T07:05:30.072Z,472
2017-02-27T07:06:15.264Z,468
2017-02-27T07:06:55.894Z,564
2017-02-27T07:07:37.485Z,716
2017-02-27T07:08:18.089Z,844
2017-02-27T07:08:58.670Z,876
2017-02-27T07:09:39.309Z,844
2017-02-27T07:10:19.956Z,748
2017-02-27T07:11:00.608Z,668
2017-02-27T07:11:41.279Z,584
2017-02-27T07:12:21.886Z,608
2017-02-27T07:13:02.554Z,732
2017-02-27T07:13:43.217Z,856
2017-02-27T07:14:23.823Z,916
2017-02-27T07:15:04.389Z,988
2017-02-27T07:15:45.095Z,1008
2017-02-27T07:16:25.724Z,1024
2017-02-27T07:17:06.339Z,1056
2017-02-27T07:17:47.008Z,1064
2017-02-27T07:18:27.648Z,1068
2017-02-27T07:19:08.313Z,1108
2017-02-27T07:19:49.009Z,1140
2017-02-27T07:20:29.605Z,1172
2017-02-27T07:21:10.198Z,1268
2017-02-27T07:21:50.783Z,1388
2017-02-27T07:22:31.396Z,1364
2017-02-27T07:23:12.002Z,1324
2017-02-27T07:23:52.617Z,1372
2017-02-27T07:24:33.274Z,1396
2017-02-27T07:25:13.946Z,1460
2017-02-27T07:25:54.701Z,1504
2017-02-27T07:26:40.335Z,1572
2017-02-27T07:27:21.053Z,1628
2017-02-27T07:28:01.807Z,1700
2017-02-27T07:28:42.477Z,1752
2017-02-27T07:29:23.165Z,1768
2017-02-27T07:30:05.815Z,1728
2017-02-27T07:30:46.468Z,1680
2017-02-27T07:31:27.193Z,1592
2017-02-27T07:32:08.834Z,1568
2017-02-27T07:32:49.721Z,1596
2017-02-27T07:33:30.401Z,1672
2017-02-27T07:34:11.071Z,1712
2017-02-27T07:34:51.756Z,1748
2017-02-27T07:35:32.494Z,1824
2017-02-27T07:36:18.797Z,1780
2017-02-27T07:36:59.423Z,1752
2017-02-27T07:37:40.023Z,1920
2017-02-27T07:38:20.583Z,2016
2017-02-27T07:39:01.159Z,2116
2017-02-27T07:39:41.725Z,2152
2017-02-27T07:40:22.288Z,2004
2017-02-27T07:41:02.848Z,1916
2017-02-27T07:41:43.426Z,1804
2017-02-27T07:42:23.995Z,1692
2017-02-27T07:43:04.568Z,1716
2017-02-27T07:43:45.145Z,1884
2017-02-27T07:44:25.707Z,2048
2017-02-27T07:45:06.276Z,2284
2017-02-27T07:45:46.886Z,2468
2017-02-27T07:46:27.461Z,2480
2017-02-27T07:47:08.075Z,2404
2017-02-27T07:47:48.686Z,2252
2017-02-27T07:48:29.263Z,2208
2017-02-27T07:49:09.828Z,2164
2017-02-27T07:49:50.417Z,2072
2017-02-27T07:50:31.096Z,1968
2017-02-27T07:51:11.664Z,1908
2017-02-27T07:51:52.230Z,1984
2017-02-27T07:52:32.822Z,2156
2017-02-27T07:53:13.379Z,2320
2017-02-27T07:53:54.043Z,2284
2017-02-27T07:54:34.717Z,2036
2017-02-27T07:55:15.293Z,1804
2017-02-27T07:55:55.868Z,1844
2017-02-27T07:56:36.407Z,1888
2017-02-27T07:57:16.986Z,1616
2017-02-27T07:57:57.574Z,1560
2017-02-27T07:58:38.165Z,1404
2017-02-27T07:59:18.746Z,1412
2017-02-27T08:00:00.156Z,1592
2017-02-27T08:00:40.798Z,2088
2017-02-27T08:01:21.396Z,2512
2017-02-27T08:02:01.996Z,2848
2017-02-27T08:02:42.564Z,3048
2017-02-27T08:03:23.151Z,3112
2017-02-27T08:04:03.733Z,3280
2017-02-27T08:04:44.358Z,3300
2017-02-27T08:05:25.033Z,3276
2017-02-27T08:06:05.607Z,3288
2017-02-27T08:06:46.177Z,3352
2017-02-27T08:07:26.750Z,3424
2017-02-27T08:08:07.299Z,3464
2017-02-27T08:08:47.936Z,3540
2017-02-27T08:09:28.483Z,3628
2017-02-27T08:10:09.068Z,3712
2017-02-27T08:10:49.651Z,3760
2017-02-27T08:11:30.230Z,3696
2017-02-27T08:12:10.782Z,3692
2017-02-27T08:12:51.349Z,3624
2017-02-27T08:13:31.937Z,3600
2017-02-27T08:14:12.508Z,3652
2017-02-27T08:14:53.074Z,3692
2017-02-27T08:15:33.663Z,3732
2017-02-27T08:16:14.238Z,3772
2017-02-27T08:16:54.845Z,3824
2017-02-27T08:17:35.479Z,3768
2017-02-27T08:18:16.037Z,3624
2017-02-27T08:18:56.597Z,3580
2017-02-27T08:19:37.168Z,3656
2017-02-27T08:20:17.813Z,3724
2017-02-27T08:20:58.381Z,3728
2017-02-27T08:21:38.956Z,3844
2017-02-27T08:22:19.541Z,3732
2017-02-27T08:23:00.114Z,3568
2017-02-27T08:23:40.677Z,3552
2017-02-27T08:24:21.270Z,3652
2017-02-27T08:25:01.848Z,3816
2017-02-27T08:25:42.439Z,3968
2017-02-27T08:26:23.081Z,4044
2017-02-27T08:27:03.632Z,4184
2017-02-27T08:27:44.270Z,4168
2017-02-27T08:28:24.841Z,4248
2017-02-27T08:29:05.415Z,4132
2017-02-27T08:29:46.055Z,4080
2017-02-27T08:30:26.692Z,4168
2017-02-27T08:31:07.316Z,4224
2017-02-27T08:31:47.956Z,4364
2017-02-27T08:32:28.528Z,4212
2017-02-27T08:33:09.177Z,4124
2017-02-27T08:33:49.863Z,4144
2017-02-27T08:34:30.515Z,4040
2017-02-27T08:35:11.161Z,4184
2017-02-27T08:35:51.761Z,4224
2017-02-27T08:36:32.463Z,4172
2017-02-27T08:37:13.157Z,4036
2017-02-27T08:37:53.863Z,4156
2017-02-27T08:38:34.595Z,4180
2017-02-27T08:39:15.273Z,4060
2017-02-27T08:39:55.912Z,3784
2017-02-27T08:40:36.594Z,3808
2017-02-27T08:41:17.252Z,3928
2017-02-27T08:41:57.921Z,4052
2017-02-27T08:42:38.679Z,3856
2017-02-27T08:43:19.446Z,3656
2017-02-27T08:44:00.134Z,3192
2017-02-27T08:44:40.820Z,3004
2017-02-27T08:45:21.658Z,3172
2017-02-27T08:46:02.342Z,3608
2017-02-27T08:46:43.081Z,3960
2017-02-27T08:47:25.832Z,3996
2017-02-27T08:48:06.524Z,3960
2017-02-27T08:48:47.160Z,4096
2017-02-27T08:49:27.784Z,3848
2017-02-27T08:50:08.455Z,3136
2017-02-27T08:50:49.108Z,3212
2017-02-27T08:51:29.773Z,3652
2017-02-27T08:52:10.416Z,4064
2017-02-27T08:52:51.069Z,4188
2017-02-27T08:53:31.721Z,4144
2017-02-27T08:54:12.376Z,4052
2017-02-27T08:54:53.028Z,3312
2017-02-27T08:55:34.701Z,3024
2017-02-27T08:56:15.365Z,3188
2017-02-27T08:56:56.011Z,3408
2017-02-27T08:57:36.685Z,3792
2017-02-27T08:58:17.319Z,4044
2017-02-27T08:58:57.886Z,4332
2017-02-27T08:59:38.515Z,4776
2017-02-27T09:00:19.278Z,5068
2017-02-27T09:00:59.846Z,5196
2017-02-27T09:01:40.421Z,5196
2017-02-27T09:02:21.020Z,5288
2017-02-27T09:03:01.786Z,5376
2017-02-27T09:03:42.346Z,5308
2017-02-27T09:04:23.192Z,5216
2017-02-27T09:05:04.967Z,5160
2017-02-27T09:05:45.729Z,5144
2017-02-27T09:06:26.392Z,5092
2017-02-27T09:07:07.028Z,5176
2017-02-27T09:07:47.688Z,4996
2017-02-27T09:08:28.335Z,4796
2017-02-27T09:09:08.898Z,4848
2017-02-27T09:09:49.596Z,4668
2017-02-27T09:10:30.250Z,4592
2017-02-27T09:11:10.842Z,4780
2017-02-27T09:11:51.407Z,4728
2017-02-27T09:12:32.102Z,4336
2017-02-27T09:13:12.770Z,4196
2017-02-27T09:13:53.471Z,3948
2017-02-27T09:14:34.153Z,3996
2017-02-27T09:15:15.867Z,3984
2017-02-27T09:15:56.621Z,3960
2017-02-27T09:16:38.371Z,4372
2017-02-27T09:17:19.026Z,4840
2017-02-27T09:17:59.779Z,5176
2017-02-27T09:18:40.504Z,5228
2017-02-27T09:19:21.088Z,5408
2017-02-27T09:20:01.767Z,5456
2017-02-27T09:20:42.506Z,5396
2017-02-27T09:21:23.129Z,5400
2017-02-27T09:22:03.776Z,5428
2017-02-27T09:22:46.563Z,5396
2017-02-27T09:23:29.323Z,5440
2017-02-27T09:24:09.924Z,5380
2017-02-27T09:24:50.605Z,5388
2017-02-27T09:25:31.248Z,5508
2017-02-27T09:26:11.867Z,5592
2017-02-27T09:26:52.445Z,5572
2017-02-27T09:27:33.082Z,5592
2017-02-27T09:28:13.732Z,5536
2017-02-27T09:28:54.315Z,5496
2017-02-27T09:29:34.983Z,5300
2017-02-27T09:30:15.580Z,5160
2017-02-27T09:30:56.240Z,4988
2017-02-27T09:31:36.790Z,4444
2017-02-27T09:32:17.458Z,4044
2017-02-27T09:32:58.084Z,4172
2017-02-27T09:33:38.737Z,4072
2017-02-27T09:34:19.304Z,3912
2017-02-27T09:34:59.909Z,3528
2017-02-27T09:35:40.524Z,3136
2017-02-27T09:36:21.158Z,3264
2017-02-27T09:37:01.746Z,3332
2017-02-27T09:37:42.414Z,3248
2017-02-27T09:38:23.021Z,3304
2017-02-27T09:39:03.668Z,3588
2017-02-27T09:39:44.318Z,4296
2017-02-27T09:40:24.906Z,4792
2017-02-27T09:41:05.520Z,4672
2017-02-27T09:41:46.174Z,4664
2017-02-27T09:42:26.755Z,4352
2017-02-27T09:43:07.384Z,4052
2017-02-27T09:43:48.032Z,3804
2017-02-27T09:44:28.626Z,3656
2017-02-27T09:45:09.253Z,3500
2017-02-27T09:45:49.888Z,3220
2017-02-27T09:46:30.442Z,3104
2017-02-27T09:47:11.139Z,3036
2017-02-27T09:47:51.856Z,3068
2017-02-27T09:48:32.448Z,3348
2017-02-27T09:49:13.049Z,4176
2017-02-27T09:49:53.704Z,4720
2017-02-27T09:50:34.287Z,5008
2017-02-27T09:51:14.988Z,5272